createdAt,value
2022-12-04T00:00:16.970Z,76.65
2022-12-04T00:03:19.229Z,70.53
2022-12-04T00:06:22.107Z,77.10
2022-12-04T00:09:24.233Z,75.78
2022-12-04T00:12:26.616Z,71.95
2022-12-04T00:15:28.826Z,75.55
2022-12-04T00:18:30.967Z,84.43
2022-12-04T00:21:33.308Z,87.10
2022-12-04T00:24:35.529Z,74.00
2022-12-04T00:27:37.741Z,68.47
2022-12-04T00:30:44.230Z,69.55
2022-12-04T00:33:46.460Z,74.10
2022-12-04T00:36:48.727Z,67.00
2022-12-04T00:39:50.841Z,80.18
2022-12-04T00:42:53.145Z,67.70
2022-12-04T00:45:55.485Z,76.43
2022-12-04T00:48:59.554Z,79.22
2022-12-04T00:52:01.640Z,87.07
2022-12-04T00:55:03.978Z,85.07
2022-12-04T00:58:07.870Z,93.05
2022-12-04T01:01:14.853Z,87.28
2022-12-04T01:04:17.051Z,91.93
2022-12-04T01:07:19.278Z,89.77
2022-12-04T01:10:21.491Z,80.53
2022-12-04T01:13:23.820Z,85.10
2022-12-04T01:16:32.847Z,78.70
2022-12-04T01:19:35.568Z,77.40
2022-12-04T01:22:37.684Z,77.10
2022-12-04T01:25:40.361Z,76.68
2022-12-04T01:28:42.603Z,73.60
2022-12-04T01:31:44.773Z,79.38
2022-12-04T01:34:46.913Z,63.15
2022-12-04T01:37:49.252Z,73.70
2022-12-04T01:40:51.543Z,75.38
2022-12-04T01:44:20.425Z,64.05
2022-12-04T01:47:22.553Z,64.80
2022-12-04T01:50:24.926Z,58.45
2022-12-04T01:53:27.261Z,62.13
2022-12-04T01:56:36.252Z,57.72
2022-12-04T01:59:54.029Z,57.45
2022-12-04T02:02:56.755Z,53.25
2022-12-04T02:05:59.278Z,51.00
2022-12-04T02:09:01.578Z,49.30
2022-12-04T02:12:09.027Z,50.88
2022-12-04T02:15:41.035Z,50.60
2022-12-04T02:19:04.740Z,46.78
2022-12-04T02:22:21.381Z,39.30
2022-12-04T02:25:42.690Z,41.07
2022-12-04T02:29:29.561Z,42.60
2022-12-04T02:32:47.565Z,45.20
2022-12-04T02:35:56.301Z,44.10
2022-12-04T02:39:12.350Z,42.38
2022-12-04T02:42:19.164Z,42.00
2022-12-04T02:45:26.334Z,36.42
2022-12-04T02:48:30.393Z,41.30
2022-12-04T02:51:35.519Z,44.85
2022-12-04T02:54:40.556Z,42.30
2022-12-04T02:57:47.417Z,44.93
2022-12-04T03:00:50.694Z,41.72
2022-12-04T03:03:57.834Z,43.60
2022-12-04T03:07:04.290Z,48.08
2022-12-04T03:10:11.093Z,46.08
2022-12-04T03:13:20.732Z,44.13
2022-12-04T03:16:27.293Z,49.30
2022-12-04T03:19:39.709Z,43.25
2022-12-04T03:22:45.939Z,46.95
2022-12-04T03:25:57.898Z,46.30
2022-12-04T03:29:10.000Z,45.50
2022-12-04T03:32:36.566Z,42.92
2022-12-04T03:36:01.190Z,44.80
2022-12-04T03:39:12.962Z,47.90
2022-12-04T03:42:37.988Z,45.55
2022-12-04T03:45:46.225Z,47.20
2022-12-04T03:48:54.333Z,50.38
2022-12-04T03:52:13.495Z,47.13
2022-12-04T03:55:17.926Z,48.97
2022-12-04T03:58:23.934Z,47.42
2022-12-04T04:01:35.023Z,52.63
2022-12-04T04:04:39.541Z,50.40
2022-12-04T04:07:48.945Z,52.35
2022-12-04T04:10:53.853Z,52.83
2022-12-04T04:14:20.000Z,55.45
2022-12-04T04:17:44.079Z,52.07
2022-12-04T04:21:22.742Z,52.80
2022-12-04T04:24:39.294Z,54.42
2022-12-04T04:27:41.573Z,59.15
2022-12-04T04:30:43.758Z,58.17
2022-12-04T04:34:02.828Z,59.73
2022-12-04T04:37:27.786Z,56.92
2022-12-04T04:40:41.697Z,59.38
2022-12-04T04:43:52.245Z,58.33
2022-12-04T04:47:02.057Z,62.85
2022-12-04T04:50:07.694Z,64.97
2022-12-04T04:53:13.197Z,65.10
2022-12-04T04:56:15.748Z,63.42
2022-12-04T04:59:18.215Z,68.22
2022-12-04T05:02:20.347Z,59.38
2022-12-04T05:05:23.216Z,61.33
2022-12-04T05:08:25.856Z,66.25
2022-12-04T05:11:28.287Z,61.33
2022-12-04T05:14:31.165Z,60.45
2022-12-04T05:17:35.618Z,59.83
2022-12-04T05:20:40.847Z,59.50
2022-12-04T05:23:43.489Z,61.75
2022-12-04T05:26:45.661Z,53.42
2022-12-04T05:29:48.607Z,57.85
2022-12-04T05:32:50.853Z,59.55
2022-12-04T05:36:11.768Z,59.37
2022-12-04T05:39:13.935Z,60.33
2022-12-04T05:42:16.132Z,57.20
2022-12-04T05:45:18.359Z,56.85
2022-12-04T05:48:20.737Z,62.45
2022-12-04T05:51:22.818Z,60.63
2022-12-04T05:54:25.208Z,61.88
2022-12-04T05:57:29.960Z,62.80
2022-12-04T06:00:32.398Z,65.78
2022-12-04T06:03:34.624Z,66.05
2022-12-04T06:06:38.469Z,69.77
2022-12-04T06:09:40.659Z,70.25
2022-12-04T06:12:42.770Z,66.25
2022-12-04T06:15:44.868Z,60.47
2022-12-04T06:18:54.535Z,62.97
2022-12-04T06:21:56.646Z,62.77
2022-12-04T06:24:58.769Z,69.05
2022-12-04T06:28:00.876Z,67.65
2022-12-04T06:31:04.760Z,59.40
2022-12-04T06:34:07.304Z,57.70
2022-12-04T06:37:09.714Z,54.20
2022-12-04T06:40:12.051Z,57.58
2022-12-04T06:43:14.137Z,55.55
2022-12-04T06:46:19.435Z,53.45
2022-12-04T06:49:22.966Z,50.15
2022-12-04T06:52:25.175Z,60.73
2022-12-04T06:55:27.342Z,60.78
2022-12-04T06:58:29.907Z,59.00
2022-12-04T07:01:34.345Z,56.78
2022-12-04T07:04:36.698Z,57.67
2022-12-04T07:07:38.947Z,60.13
2022-12-04T07:10:41.385Z,54.58
2022-12-04T07:13:43.910Z,54.50
2022-12-04T07:16:46.132Z,54.20
2022-12-04T07:19:48.297Z,51.33
2022-12-04T07:22:50.421Z,54.53
2022-12-04T07:25:52.608Z,56.53
2022-12-04T07:28:55.737Z,52.92
2022-12-04T07:31:58.270Z,53.70
2022-12-04T07:35:00.472Z,50.05
2022-12-04T07:38:02.565Z,49.07
2022-12-04T07:41:06.411Z,45.95
2022-12-04T07:44:08.538Z,45.33
2022-12-04T07:47:10.704Z,51.10
2022-12-04T07:50:12.850Z,46.88
2022-12-04T07:53:14.955Z,45.77
2022-12-04T07:56:18.048Z,48.55
2022-12-04T07:59:20.350Z,44.25
2022-12-04T08:02:22.544Z,46.47
2022-12-04T08:05:24.876Z,46.03
2022-12-04T08:08:27.123Z,42.93
2022-12-04T08:11:29.326Z,47.67
2022-12-04T08:14:31.603Z,47.65
2022-12-04T08:17:33.693Z,47.25
2022-12-04T08:20:36.560Z,51.10
2022-12-04T08:23:39.912Z,45.53
2022-12-04T08:26:42.083Z,44.67
2022-12-04T08:29:44.190Z,45.42
2022-12-04T08:32:46.397Z,45.10
2022-12-04T08:35:48.749Z,45.35
2022-12-04T08:38:51.169Z,43.87
2022-12-04T08:41:56.985Z,44.45
2022-12-04T08:44:59.493Z,42.58
2022-12-04T08:48:02.251Z,45.15
2022-12-04T08:51:05.034Z,40.78
2022-12-04T08:54:08.751Z,44.20
2022-12-04T08:57:10.878Z,42.05
2022-12-04T09:00:15.629Z,44.08
2022-12-04T09:03:22.676Z,42.92
2022-12-04T09:06:29.900Z,39.88
2022-12-04T09:09:32.788Z,38.20
2022-12-04T09:12:35.593Z,40.75
2022-12-04T09:15:41.649Z,38.05
2022-12-04T09:18:44.309Z,38.13
2022-12-04T09:21:47.428Z,37.28
2022-12-04T09:24:50.085Z,37.23
2022-12-04T09:27:53.687Z,36.28
2022-12-04T09:31:05.934Z,36.88
2022-12-04T09:34:08.551Z,35.90
2022-12-04T09:37:11.563Z,36.13
2022-12-04T09:40:37.199Z,34.73
2022-12-04T09:44:04.769Z,36.85
2022-12-04T09:47:15.315Z,37.00
2022-12-04T09:50:27.794Z,37.15
2022-12-04T09:53:43.086Z,39.45
2022-12-04T09:56:56.298Z,37.63
2022-12-04T09:59:59.319Z,36.28
2022-12-04T10:03:06.085Z,38.05
2022-12-04T10:06:15.203Z,37.60
2022-12-04T10:09:22.389Z,38.35
2022-12-04T10:12:41.946Z,38.50
2022-12-04T10:15:53.650Z,38.55
2022-12-04T10:19:04.198Z,35.72
2022-12-04T10:22:28.901Z,39.42
2022-12-04T10:25:34.161Z,35.95
2022-12-04T10:28:42.377Z,33.03
2022-12-04T10:31:45.359Z,34.60
2022-12-04T10:34:50.456Z,35.28
2022-12-04T10:37:59.855Z,34.08
2022-12-04T10:41:15.037Z,32.50
2022-12-04T10:44:19.308Z,33.53
2022-12-04T10:47:24.215Z,33.55
2022-12-04T10:50:26.830Z,31.85
2022-12-04T10:53:31.865Z,33.03
2022-12-04T10:56:33.999Z,29.40
2022-12-04T11:00:00.309Z,32.57
2022-12-04T11:03:08.843Z,33.13
2022-12-04T11:06:11.465Z,32.03
2022-12-04T11:09:24.406Z,31.42
2022-12-04T11:12:26.626Z,28.48
2022-12-04T11:15:29.483Z,28.67
2022-12-04T11:18:34.042Z,31.13
2022-12-04T11:21:38.255Z,32.42
2022-12-04T11:24:43.497Z,33.75
2022-12-04T11:27:47.394Z,33.20
2022-12-04T11:30:52.045Z,31.30
2022-12-04T11:33:57.706Z,33.03
2022-12-04T11:37:01.477Z,31.52
2022-12-04T11:40:08.308Z,33.15
2022-12-04T11:43:10.474Z,31.67
2022-12-04T11:46:24.346Z,31.83
2022-12-04T11:49:28.055Z,29.98
2022-12-04T11:52:53.479Z,31.33
2022-12-04T11:56:05.039Z,30.80
2022-12-04T11:59:28.358Z,28.98
2022-12-04T12:02:55.359Z,30.20
2022-12-04T12:06:16.543Z,29.95
2022-12-04T12:09:38.768Z,30.05
2022-12-04T12:12:50.641Z,30.23
2022-12-04T12:16:10.994Z,28.83
2022-12-04T12:19:42.830Z,27.80
2022-12-04T12:23:16.442Z,30.92
2022-12-04T12:26:21.078Z,28.20
2022-12-04T12:29:36.609Z,29.23
2022-12-04T12:32:52.687Z,29.83
2022-12-04T12:36:06.379Z,29.37
2022-12-04T12:39:23.021Z,28.70
2022-12-04T12:42:30.410Z,27.15
2022-12-04T12:45:46.046Z,28.98
2022-12-04T12:48:58.299Z,27.90
2022-12-04T12:52:34.904Z,27.37
2022-12-04T12:55:48.040Z,28.35
2022-12-04T12:58:55.464Z,27.60
2022-12-04T13:02:27.635Z,27.52
2022-12-04T13:05:36.376Z,28.35
2022-12-04T13:08:49.463Z,27.30
2022-12-04T13:11:54.825Z,26.48
2022-12-04T13:14:57.584Z,23.63
2022-12-04T13:18:00.325Z,22.38
2022-12-04T13:21:06.554Z,24.55
2022-12-04T13:24:29.899Z,22.03
2022-12-04T13:27:50.257Z,24.88
2022-12-04T13:31:00.957Z,21.88
2022-12-04T13:34:14.666Z,24.17
2022-12-04T13:37:19.572Z,23.95
2022-12-04T13:40:37.431Z,24.33
2022-12-04T13:43:43.305Z,22.10
2022-12-04T13:47:06.969Z,26.20
2022-12-04T13:50:30.855Z,23.30
2022-12-04T13:53:37.841Z,24.02
2022-12-04T13:56:43.827Z,22.93
2022-12-04T13:59:46.496Z,27.10
2022-12-04T14:02:51.967Z,25.48
2022-12-04T14:05:54.846Z,28.00
2022-12-04T14:08:58.891Z,26.80
2022-12-04T14:12:03.905Z,25.33
2022-12-04T14:15:20.886Z,24.02
2022-12-04T14:18:28.890Z,25.05
2022-12-04T14:21:41.793Z,24.50
2022-12-04T14:24:45.574Z,31.25
2022-12-04T14:27:53.284Z,28.33
2022-12-04T14:31:03.876Z,24.50
2022-12-04T14:34:24.879Z,24.50
2022-12-04T14:37:41.533Z,25.95
2022-12-04T14:40:56.233Z,25.17
2022-12-04T14:43:58.853Z,24.33
2022-12-04T14:47:24.448Z,25.83
2022-12-04T14:50:34.557Z,27.48
2022-12-04T14:53:48.109Z,27.08
2022-12-04T14:57:02.539Z,24.83
2022-12-04T15:00:06.242Z,27.90
2022-12-04T15:03:13.016Z,26.73
2022-12-04T15:06:21.755Z,27.58
2022-12-04T15:09:43.320Z,34.17
2022-12-04T15:12:50.181Z,31.38
2022-12-04T15:15:54.523Z,31.17
2022-12-04T15:18:58.826Z,34.78
2022-12-04T15:22:07.391Z,36.95
2022-12-04T15:25:16.610Z,38.78
2022-12-04T15:28:23.824Z,35.45
2022-12-04T15:31:32.111Z,34.47
2022-12-04T15:34:52.154Z,31.85
2022-12-04T15:37:55.390Z,31.65
2022-12-04T15:41:00.411Z,29.58
2022-12-04T15:44:04.184Z,32.40
2022-12-04T15:47:17.629Z,29.87
2022-12-04T15:50:19.796Z,30.38
2022-12-04T15:53:26.911Z,31.17
2022-12-04T15:56:29.911Z,30.38
2022-12-04T15:59:33.812Z,32.72
2022-12-04T16:02:40.812Z,33.67
2022-12-04T16:05:43.485Z,36.40
2022-12-04T16:08:51.836Z,34.42
2022-12-04T16:12:00.284Z,33.65
2022-12-04T16:15:03.017Z,33.72
2022-12-04T16:18:06.915Z,34.23
2022-12-04T16:21:14.328Z,35.83
2022-12-04T16:24:16.952Z,33.97
2022-12-04T16:27:24.246Z,35.13
2022-12-04T16:30:32.211Z,36.00
2022-12-04T16:33:35.425Z,40.20
2022-12-04T16:36:38.165Z,35.05
2022-12-04T16:39:41.578Z,33.88
2022-12-04T16:42:44.212Z,36.88
2022-12-04T16:45:49.619Z,37.03
2022-12-04T16:48:52.793Z,34.03
2022-12-04T16:51:54.999Z,34.97
2022-12-04T16:55:01.778Z,35.78
2022-12-04T16:58:08.012Z,31.05
2022-12-04T17:01:30.111Z,31.00
2022-12-04T17:04:34.051Z,35.10
2022-12-04T17:07:36.863Z,31.50
2022-12-04T17:10:39.531Z,33.33
2022-12-04T17:13:42.417Z,34.80
2022-12-04T17:16:47.118Z,35.65
2022-12-04T17:19:49.763Z,33.73
2022-12-04T17:22:52.647Z,34.80
2022-12-04T17:25:55.028Z,34.53
2022-12-04T17:28:57.651Z,34.80
2022-12-04T17:31:59.910Z,36.33
2022-12-04T17:35:03.335Z,37.40
2022-12-04T17:38:06.531Z,33.47
2022-12-04T17:41:10.712Z,37.00
2022-12-04T17:44:12.899Z,36.72
2022-12-04T17:47:15.804Z,38.20
2022-12-04T17:50:18.764Z,39.83
2022-12-04T17:53:21.424Z,39.05
2022-12-04T17:56:24.634Z,39.60
2022-12-04T17:59:27.446Z,39.20
2022-12-04T18:02:30.094Z,37.05
2022-12-04T18:05:32.715Z,38.73
2022-12-04T18:08:35.155Z,35.10
2022-12-04T18:11:39.902Z,37.70
2022-12-04T18:14:42.857Z,33.72
2022-12-04T18:17:45.934Z,33.42
2022-12-04T18:20:48.667Z,36.40
2022-12-04T18:23:51.349Z,30.40
2022-12-04T18:26:54.362Z,36.50
2022-12-04T18:29:57.415Z,36.85
2022-12-04T18:32:59.935Z,36.53
2022-12-04T18:36:02.765Z,33.10
2022-12-04T18:39:09.213Z,34.95
2022-12-04T18:42:11.950Z,34.67
2022-12-04T18:45:14.684Z,36.33
2022-12-04T18:48:17.417Z,32.97
2022-12-04T18:51:24.112Z,37.03
2022-12-04T18:54:26.910Z,34.25
2022-12-04T18:57:29.685Z,32.78
2022-12-04T19:00:32.865Z,36.00
2022-12-04T19:03:36.425Z,32.72
2022-12-04T19:06:41.930Z,34.07
2022-12-04T19:10:10.353Z,30.98
2022-12-04T19:13:08.537Z,33.83
2022-12-04T19:16:13.114Z,35.10
2022-12-04T19:19:16.116Z,34.15
2022-12-04T19:22:18.902Z,32.23
2022-12-04T19:25:21.724Z,36.92
2022-12-04T19:28:24.851Z,38.55
2022-12-04T19:31:29.867Z,37.80
2022-12-04T19:34:32.925Z,33.45
2022-12-04T19:37:42.201Z,32.93
2022-12-04T19:40:45.609Z,35.75
2022-12-04T19:43:51.092Z,33.42
2022-12-04T19:46:53.902Z,32.80
2022-12-04T19:49:57.036Z,35.40
2022-12-04T19:53:00.019Z,32.00
2022-12-04T19:56:12.055Z,34.45
2022-12-04T19:59:15.216Z,32.85
2022-12-04T20:02:17.757Z,34.45
2022-12-04T20:05:20.477Z,34.38
2022-12-04T20:08:23.471Z,37.00
2022-12-04T20:11:26.838Z,34.88
2022-12-04T20:14:30.446Z,36.75
2022-12-04T20:17:34.037Z,33.38
2022-12-04T20:20:37.866Z,32.10
2022-12-04T20:23:41.701Z,34.80
2022-12-04T20:26:45.672Z,35.22
2022-12-04T20:29:48.304Z,36.85
2022-12-04T20:32:50.948Z,36.20
2022-12-04T20:35:54.261Z,36.47
2022-12-04T20:39:00.612Z,36.57
2022-12-04T20:42:04.338Z,34.30
2022-12-04T20:45:07.566Z,35.28
2022-12-04T20:48:10.364Z,34.97
2022-12-04T20:51:12.658Z,35.00
2022-12-04T20:54:20.659Z,38.73
2022-12-04T20:57:23.376Z,38.10
2022-12-04T21:00:25.641Z,35.58
2022-12-04T21:03:27.973Z,37.13
2022-12-04T21:06:38.523Z,39.28
2022-12-04T21:09:40.929Z,40.10
2022-12-04T21:13:01.413Z,38.53
2022-12-04T21:16:05.601Z,34.60
2022-12-04T21:19:09.807Z,37.17
2022-12-04T21:22:13.138Z,33.97
2022-12-04T21:25:15.484Z,34.03
2022-12-04T21:28:17.578Z,34.63
2022-12-04T21:31:19.809Z,34.60
2022-12-04T21:34:22.100Z,35.22
2022-12-04T21:37:24.356Z,34.75
2022-12-04T21:40:26.534Z,33.00
2022-12-04T21:43:29.858Z,36.60
2022-12-04T21:46:32.329Z,33.30
2022-12-04T21:49:34.552Z,32.13
2022-12-04T21:52:36.746Z,34.78
2022-12-04T21:55:38.892Z,36.83
2022-12-04T21:58:41.669Z,35.65
2022-12-04T22:01:45.223Z,35.22
2022-12-04T22:04:48.576Z,34.10
2022-12-04T22:07:51.505Z,36.13
2022-12-04T22:10:53.864Z,31.97
2022-12-04T22:13:55.986Z,32.63
2022-12-04T22:16:59.633Z,31.05
2022-12-04T22:20:03.248Z,26.70
2022-12-04T22:23:05.477Z,29.45
2022-12-04T22:26:12.969Z,31.33
2022-12-04T22:29:48.531Z,31.05
2022-12-04T22:32:40.372Z,27.45
2022-12-04T22:35:42.490Z,30.70
2022-12-04T22:39:05.986Z,31.30
2022-12-04T22:42:07.207Z,30.00
2022-12-04T22:45:10.050Z,29.08
2022-12-04T22:48:12.446Z,32.47
2022-12-04T22:51:20.141Z,29.13
2022-12-04T22:54:22.317Z,29.67
2022-12-04T22:57:25.230Z,31.70
2022-12-04T23:00:28.344Z,30.83
2022-12-04T23:03:30.550Z,24.15
2022-12-04T23:06:33.903Z,32.90
2022-12-04T23:09:36.245Z,19.98
2022-12-04T23:12:39.624Z,27.73
2022-12-04T23:15:42.075Z,29.83
2022-12-04T23:18:44.178Z,25.73
2022-12-04T23:21:49.693Z,29.35
2022-12-04T23:24:55.797Z,28.23
2022-12-04T23:27:57.911Z,28.30
2022-12-04T23:31:01.089Z,27.00
2022-12-04T23:34:04.514Z,25.48
2022-12-04T23:37:06.682Z,24.55
2022-12-04T23:40:09.102Z,25.48
2022-12-04T23:43:11.407Z,29.23
2022-12-04T23:46:16.857Z,25.52
2022-12-04T23:49:19.018Z,25.10
2022-12-04T23:52:21.123Z,27.02
2022-12-04T23:55:23.679Z,21.98
2022-12-04T23:58:26.095Z,23.07
